Time;durP1;ratioP1;P1;durP2;ratioP2;P2;SDS_P1;SDS_P2;PMS_P1;PMS_P2;Temp;Humidity;BMP_temperature;BMP_pressure;BME280_temperature;BME280_humidity;BME280_pressure;Samples;Min_cycle;Max_cycle;Signal;HPM_P1;HPM_P2
2022/01/17 00:01:08;;;;;;;19.35;2.67;;;5.20;99.90;;;;;;5071257;28;20032;-79
2022/01/17 00:03:34;;;;;;;16.42;2.88;;;5.10;99.90;;;;;;5059656;28;20450;-79
2022/01/17 00:06:00;;;;;;;12.40;2.15;;;5.00;99.90;;;;;;5079822;28;20379;-83
2022/01/17 00:08:26;;;;;;;12.27;1.80;;;5.00;99.90;;;;;;5069123;28;20047;-79
2022/01/17 00:10:52;;;;;;;11.82;1.98;;;5.00;99.90;;;;;;5075119;28;20049;-79
2022/01/17 00:13:25;;;;;;;34.00;3.15;;;4.90;99.90;;;;;;5072845;28;20098;-79
2022/01/17 00:15:57;;;;;;;21.95;2.60;;;4.80;99.90;;;;;;5085470;28;20051;-79
2022/01/17 00:18:31;;;;;;;23.08;2.25;;;4.70;99.90;;;;;;5086945;28;20077;-79
2022/01/17 00:20:57;;;;;;;15.80;3.05;;;4.70;99.90;;;;;;5087521;28;20076;-79
2022/01/17 00:23:23;;;;;;;24.52;2.75;;;4.70;99.90;;;;;;5057258;28;20564;-79
2022/01/17 00:25:49;;;;;;;17.48;2.30;;;4.70;99.90;;;;;;5083395;28;20048;-80
2022/01/17 00:28:15;;;;;;;11.30;1.85;;;4.60;99.90;;;;;;5081860;28;20513;-80
2022/01/17 00:30:41;;;;;;;14.93;1.90;;;4.60;99.90;;;;;;5063861;28;20079;-80
2022/01/17 00:33:06;;;;;;;11.55;1.98;;;4.60;99.90;;;;;;5073544;28;20045;-79
2022/01/17 00:35:32;;;;;;;16.23;2.30;;;4.70;99.90;;;;;;5070511;28;20043;-79
2022/01/17 00:37:57;;;;;;;17.98;2.20;;;4.70;99.90;;;;;;5087359;28;20060;-80
2022/01/17 00:40:25;;;;;;;15.15;2.20;;;4.80;99.90;;;;;;5084220;28;20083;-80
2022/01/17 00:42:50;;;;;;;12.15;2.25;;;4.80;99.90;;;;;;5083674;28;20044;-79
2022/01/17 00:45:19;;;;;;;16.23;2.25;;;4.90;99.90;;;;;;5062464;28;20044;-79
2022/01/17 00:47:45;;;;;;;14.88;2.10;;;4.90;99.90;;;;;;5074392;28;20051;-80
2022/01/17 00:50:11;;;;;;;13.65;1.80;;;4.90;99.90;;;;;;5081765;28;20048;-81
2022/01/17 00:52:37;;;;;;;15.02;1.98;;;4.90;99.90;;;;;;5062852;28;20056;-80
2022/01/17 00:55:03;;;;;;;18.92;2.33;;;4.90;99.90;;;;;;5079280;28;20080;-79
2022/01/17 00:57:29;;;;;;;22.27;2.13;;;4.90;99.90;;;;;;5062658;28;20097;-81
2022/01/17 00:59:55;;;;;;;14.60;2.28;;;4.90;99.90;;;;;;5092824;28;20123;-80
2022/01/17 01:02:20;;;;;;;22.45;2.50;;;5.00;99.90;;;;;;5078940;28;20043;-80
2022/01/17 01:04:46;;;;;;;16.48;2.03;;;5.00;99.90;;;;;;5089651;28;20098;-81
2022/01/17 01:07:12;;;;;;;15.25;3.03;;;5.10;99.90;;;;;;5088680;28;20048;-79
2022/01/17 01:09:48;;;;;;;17.73;2.58;;;5.00;99.90;;;;;;5058129;28;20048;-80
2022/01/17 01:12:14;;;;;;;20.05;2.20;;;5.10;99.90;;;;;;5042747;28;20055;-79
2022/01/17 01:14:41;;;;;;;11.82;1.83;;;5.00;99.90;;;;;;5071274;28;20044;-82
2022/01/17 01:17:14;;;;;;;15.35;2.00;;;5.00;99.90;;;;;;5068580;28;20044;-81
2022/01/17 01:19:42;;;;;;;13.50;1.85;;;4.90;99.90;;;;;;5077761;28;20500;-80
2022/01/17 01:27:40;;;;;;;22.55;2.85;;;4.80;99.90;;;;;;5082104;28;20059;-81
2022/01/17 01:30:09;;;;;;;16.33;1.88;;;4.90;99.90;;;;;;5071152;28;20135;-80
2022/01/17 01:32:43;;;;;;;16.90;2.22;;;4.90;99.90;;;;;;5077198;28;20043;-80
2022/01/17 01:35:12;;;;;;;25.35;3.85;;;5.00;99.90;;;;;;5062194;28;20119;-80
2022/01/17 01:37:38;;;;;;;17.17;2.00;;;5.00;99.90;;;;;;5064650;28;20056;-80
2022/01/17 01:40:05;;;;;;;18.35;2.92;;;5.00;99.90;;;;;;5066865;28;20063;-79
2022/01/17 01:42:33;;;;;;;18.50;2.10;;;5.00;99.90;;;;;;5077661;28;20040;-80
2022/01/17 01:45:01;;;;;;;12.80;1.35;;;5.00;99.90;;;;;;5088662;28;20126;-80
2022/01/17 01:47:28;;;;;;;18.13;2.65;;;5.20;99.90;;;;;;5090564;28;20085;-81
2022/01/17 01:49:54;;;;;;;22.42;2.50;;;5.10;99.90;;;;;;5073518;28;20134;-80
2022/01/17 01:52:19;;;;;;;15.68;2.10;;;5.10;99.90;;;;;;5065024;28;20582;-80
2022/01/17 01:54:45;;;;;;;21.23;2.63;;;5.00;99.90;;;;;;5049521;28;20040;-80
2022/01/17 01:57:11;;;;;;;13.63;1.90;;;5.00;99.90;;;;;;5089457;28;20056;-80
2022/01/17 01:59:37;;;;;;;20.55;2.22;;;5.00;99.90;;;;;;5094324;28;20452;-79
2022/01/17 02:02:04;;;;;;;16.00;2.47;;;5.00;99.90;;;;;;5079679;28;20518;-80
2022/01/17 02:04:30;;;;;;;21.80;1.98;;;4.90;99.90;;;;;;5052817;28;20079;-80
2022/01/17 02:06:56;;;;;;;14.60;1.85;;;4.90;99.90;;;;;;5057919;28;20079;-79
2022/01/17 02:09:24;;;;;;;17.23;2.72;;;4.90;99.90;;;;;;5058749;28;20445;-80
2022/01/17 02:11:51;;;;;;;21.15;2.10;;;4.80;99.90;;;;;;5091684;28;20512;-80
2022/01/17 02:14:17;;;;;;;15.63;3.67;;;4.90;99.90;;;;;;5086102;28;20040;-86
2022/01/17 02:16:44;;;;;;;16.25;2.15;;;4.80;99.90;;;;;;5085853;28;20039;-81
2022/01/17 02:19:11;;;;;;;14.55;2.17;;;4.90;99.90;;;;;;5087394;28;20058;-80
2022/01/17 02:21:49;;;;;;;14.93;1.90;;;4.80;99.90;;;;;;5057473;28;20043;-80
2022/01/17 02:24:16;;;;;;;20.48;2.40;;;4.70;99.90;;;;;;5072407;28;20047;-81
2022/01/17 02:26:46;;;;;;;24.33;3.47;;;4.80;99.90;;;;;;5066962;28;20096;-80
2022/01/17 02:29:12;;;;;;;17.40;2.92;;;4.70;99.90;;;;;;5059189;28;20061;-80
2022/01/17 02:31:38;;;;;;;18.25;2.92;;;4.70;99.90;;;;;;5054468;28;20074;-82
2022/01/17 02:34:04;;;;;;;20.88;2.60;;;4.70;99.90;;;;;;5082476;28;20044;-80
2022/01/17 02:36:31;;;;;;;23.38;2.97;;;4.70;99.90;;;;;;5070184;28;20056;-80
2022/01/17 02:38:57;;;;;;;21.63;3.13;;;4.70;99.90;;;;;;5078445;28;20148;-79
2022/01/17 02:41:26;;;;;;;14.95;2.30;;;4.60;99.90;;;;;;5073834;28;20236;-87
2022/01/17 02:43:52;;;;;;;11.55;2.85;;;4.60;99.90;;;;;;5105867;28;20446;-80
2022/01/17 02:46:25;;;;;;;18.45;2.47;;;4.60;99.90;;;;;;5058850;28;20512;-81
2022/01/17 02:48:50;;;;;;;13.82;2.30;;;4.60;99.90;;;;;;5051147;28;20050;-80
2022/01/17 02:51:16;;;;;;;16.45;2.22;;;4.70;99.90;;;;;;5058518;28;20118;-80
2022/01/17 02:53:42;;;;;;;16.88;2.15;;;4.70;99.90;;;;;;5091137;28;20503;-81
2022/01/17 02:56:11;;;;;;;14.15;2.10;;;4.70;99.90;;;;;;5089950;28;20048;-80
2022/01/17 02:58:38;;;;;;;20.30;3.15;;;4.70;99.90;;;;;;5086521;28;20047;-79
2022/01/17 03:01:16;;;;;;;21.48;2.70;;;4.70;99.90;;;;;;5081913;28;20039;-79
2022/01/17 03:03:43;;;;;;;16.95;2.20;;;4.60;99.90;;;;;;5083030;28;20068;-80
2022/01/17 03:06:11;;;;;;;15.90;2.42;;;4.60;99.90;;;;;;5092427;28;20046;-80
2022/01/17 03:08:38;;;;;;;23.23;2.38;;;4.60;99.90;;;;;;5080555;28;20051;-79
2022/01/17 03:11:05;;;;;;;18.20;2.83;;;4.60;99.90;;;;;;5058996;28;20055;-80
2022/01/17 03:13:34;;;;;;;29.38;2.67;;;4.60;99.90;;;;;;5088260;28;20040;-80
2022/01/17 03:16:04;;;;;;;20.33;2.95;;;4.70;99.90;;;;;;5080033;28;20047;-80
2022/01/17 03:18:33;;;;;;;24.40;2.90;;;4.70;99.90;;;;;;5075100;28;20420;-79
2022/01/17 03:21:00;;;;;;;16.17;2.13;;;4.70;99.90;;;;;;5078339;28;20118;-80
2022/01/17 03:23:26;;;;;;;18.70;2.92;;;4.80;99.90;;;;;;5068303;28;20039;-82
2022/01/17 03:25:53;;;;;;;13.25;2.05;;;4.80;99.90;;;;;;5066288;28;20044;-79
2022/01/17 03:28:19;;;;;;;15.05;1.98;;;4.80;99.90;;;;;;5075058;28;20497;-80
2022/01/17 03:30:44;;;;;;;32.55;3.65;;;4.80;99.90;;;;;;5078500;28;20040;-81
2022/01/17 03:33:12;;;;;;;25.88;3.58;;;4.90;99.90;;;;;;5072060;28;20448;-79
2022/01/17 03:35:39;;;;;;;19.80;2.67;;;5.00;99.90;;;;;;5087027;28;20081;-81
2022/01/17 03:38:06;;;;;;;16.90;2.30;;;5.10;99.90;;;;;;5089928;28;20052;-81
2022/01/17 03:40:32;;;;;;;13.77;1.83;;;5.00;99.90;;;;;;5074033;28;20075;-81
2022/01/17 03:42:58;;;;;;;21.63;2.28;;;5.10;99.90;;;;;;5067069;28;20079;-80
2022/01/17 03:45:24;;;;;;;16.67;2.47;;;5.10;99.90;;;;;;5047503;28;20059;-80
2022/01/17 03:47:50;;;;;;;20.85;3.08;;;5.20;99.90;;;;;;5077406;28;20591;-80
2022/01/17 03:50:19;;;;;;;15.77;1.77;;;5.10;99.90;;;;;;5045415;28;20051;-80
2022/01/17 03:52:46;;;;;;;25.85;4.25;;;5.20;99.90;;;;;;5083889;28;20047;-81
2022/01/17 03:55:15;;;;;;;23.10;2.13;;;5.30;99.90;;;;;;5046682;28;20052;-81
2022/01/17 03:57:44;;;;;;;15.50;2.15;;;5.20;99.90;;;;;;5079453;28;20043;-79
2022/01/17 04:00:16;;;;;;;19.83;2.80;;;5.30;99.90;;;;;;5091033;28;20040;-80
2022/01/17 04:02:43;;;;;;;11.25;1.63;;;5.30;99.90;;;;;;5085291;28;20032;-79
2022/01/17 04:05:09;;;;;;;19.30;2.00;;;5.40;99.90;;;;;;5077032;28;20079;-80
2022/01/17 04:07:35;;;;;;;15.18;1.98;;;5.30;99.90;;;;;;5086335;28;20040;-83
2022/01/17 04:10:00;;;;;;;14.57;1.95;;;5.40;99.90;;;;;;5076882;28;20066;-79
2022/01/17 04:12:26;;;;;;;19.02;2.17;;;5.30;99.90;;;;;;5083085;28;20484;-79
2022/01/17 04:14:54;;;;;;;16.13;2.30;;;5.30;99.90;;;;;;5084819;28;20054;-79
2022/01/17 04:17:24;;;;;;;13.88;1.75;;;5.30;99.90;;;;;;5055600;28;20048;-79
2022/01/17 04:19:52;;;;;;;18.98;2.22;;;5.20;99.90;;;;;;5092609;28;20127;-79
2022/01/17 04:22:18;;;;;;;18.23;2.20;;;5.10;99.90;;;;;;5073086;28;20421;-81
2022/01/17 04:24:44;;;;;;;19.17;2.42;;;5.10;99.90;;;;;;5095053;28;20051;-80
2022/01/17 04:27:09;;;;;;;15.13;2.08;;;5.00;99.90;;;;;;5078029;28;20544;-79
2022/01/17 04:29:38;;;;;;;18.25;1.73;;;5.00;99.90;;;;;;5080272;28;20040;-80
2022/01/17 04:32:05;;;;;;;15.40;2.00;;;5.10;99.90;;;;;;5088379;28;20059;-80
2022/01/17 04:34:32;;;;;;;16.63;2.30;;;5.10;99.90;;;;;;5091448;28;20516;-79
2022/01/17 04:36:58;;;;;;;21.73;2.85;;;5.10;99.90;;;;;;5086208;28;20058;-81
2022/01/17 04:39:24;;;;;;;15.63;2.00;;;5.10;99.90;;;;;;5067724;28;20032;-80
2022/01/17 04:41:49;;;;;;;14.98;1.90;;;5.20;99.90;;;;;;5069277;28;20097;-79
2022/01/17 04:47:00;;;;;;;13.80;1.67;;;5.10;99.90;;;;;;5073529;28;20093;-79
2022/01/17 04:49:25;;;;;;;18.75;2.47;;;5.20;99.90;;;;;;5089372;28;20125;-79
2022/01/17 04:51:54;;;;;;;10.38;1.65;;;5.30;99.90;;;;;;5090786;28;20039;-79
2022/01/17 04:56:49;;;;;;;13.75;2.03;;;5.40;99.90;;;;;;5092269;28;20053;-80
2022/01/17 04:59:15;;;;;;;14.98;2.00;;;5.50;99.90;;;;;;5096350;28;20480;-79
2022/01/17 05:01:41;;;;;;;17.85;2.80;;;5.60;99.90;;;;;;5087714;28;20040;-85
2022/01/17 05:04:07;;;;;;;12.23;2.20;;;5.60;99.90;;;;;;5084393;28;20122;-79
2022/01/17 05:06:32;;;;;;;14.15;2.00;;;5.60;99.90;;;;;;5077094;28;20065;-79
2022/01/17 05:09:00;;;;;;;16.67;1.70;;;5.70;99.90;;;;;;5066768;28;20062;-79
2022/01/17 05:11:29;;;;;;;22.23;3.30;;;5.70;99.90;;;;;;5073167;28;20039;-79
2022/01/17 05:13:55;;;;;;;18.58;2.30;;;5.70;99.90;;;;;;5073749;28;20122;-79
2022/01/17 05:16:22;;;;;;;16.63;2.67;;;5.70;99.90;;;;;;5081749;28;20127;-78
2022/01/17 05:21:15;;;;;;;20.30;2.90;;;5.80;99.90;;;;;;5079068;28;20054;-79
2022/01/17 05:23:42;;;;;;;18.20;3.00;;;5.90;99.90;;;;;;5090301;28;20074;-78
2022/01/17 05:26:08;;;;;;;17.00;2.55;;;5.90;99.90;;;;;;5068062;28;20039;-80
2022/01/17 05:28:34;;;;;;;14.40;3.03;;;5.90;99.90;;;;;;5071016;28;20052;-81
2022/01/17 05:31:00;;;;;;;18.75;2.55;;;6.00;99.90;;;;;;5087244;28;20044;-78
2022/01/17 05:33:26;;;;;;;22.70;2.90;;;6.00;99.90;;;;;;5070300;28;20123;-78
2022/01/17 05:35:51;;;;;;;17.40;2.80;;;6.00;99.90;;;;;;5088575;28;20123;-78
2022/01/17 05:38:18;;;;;;;14.63;3.22;;;6.00;99.90;;;;;;5088319;28;20048;-78
2022/01/17 05:40:44;;;;;;;21.15;3.28;;;6.00;99.90;;;;;;5063968;28;20610;-79
2022/01/17 05:43:09;;;;;;;21.42;2.58;;;6.00;99.90;;;;;;5052762;28;20056;-79
2022/01/17 05:45:35;;;;;;;18.33;2.70;;;6.00;99.90;;;;;;5077606;28;20484;-80
2022/01/17 05:48:01;;;;;;;17.08;3.08;;;6.00;99.90;;;;;;5069505;28;20058;-79
2022/01/17 05:50:26;;;;;;;21.38;3.05;;;6.00;99.90;;;;;;5089328;28;20039;-79
2022/01/17 05:52:52;;;;;;;17.90;3.28;;;6.00;99.90;;;;;;5066212;28;20043;-79
2022/01/17 05:55:18;;;;;;;15.75;2.75;;;6.10;99.90;;;;;;5067060;28;20127;-79
2022/01/17 05:57:44;;;;;;;12.73;2.45;;;6.10;99.90;;;;;;5091817;28;20043;-79
2022/01/17 06:00:13;;;;;;;24.08;3.28;;;6.10;99.90;;;;;;5080923;28;20059;-79
2022/01/17 06:02:39;;;;;;;20.20;3.10;;;6.20;99.90;;;;;;5086711;28;20401;-80
2022/01/17 06:05:05;;;;;;;16.95;3.33;;;6.20;99.90;;;;;;5083312;28;20039;-79
2022/01/17 06:07:31;;;;;;;18.92;4.20;;;6.10;99.90;;;;;;5052175;28;20056;-79
2022/01/17 06:09:56;;;;;;;18.02;3.53;;;6.20;99.90;;;;;;5053767;28;20583;-78
2022/01/17 06:12:22;;;;;;;23.25;3.35;;;6.20;99.90;;;;;;5105954;28;20040;-78
2022/01/17 06:14:48;;;;;;;24.17;4.40;;;6.20;99.90;;;;;;5074704;28;20047;-79
2022/01/17 06:17:13;;;;;;;20.42;3.20;;;6.20;99.90;;;;;;5059706;28;20048;-78
2022/01/17 06:19:39;;;;;;;16.67;4.03;;;6.20;99.90;;;;;;5089402;28;20444;-79
2022/01/17 06:22:05;;;;;;;22.00;5.10;;;6.20;99.90;;;;;;5070162;28;20132;-79
2022/01/17 06:24:31;;;;;;;17.60;3.88;;;6.30;99.90;;;;;;5087203;28;20473;-78
2022/01/17 06:26:58;;;;;;;23.90;5.20;;;6.40;99.90;;;;;;5066388;28;20040;-79
2022/01/17 06:29:24;;;;;;;20.20;3.58;;;6.30;99.90;;;;;;5059155;28;20048;-80
2022/01/17 06:31:50;;;;;;;21.98;5.70;;;6.20;99.90;;;;;;5073603;28;20105;-78
2022/01/17 06:34:16;;;;;;;17.00;3.05;;;6.10;99.90;;;;;;5086669;28;20048;-78
2022/01/17 06:36:42;;;;;;;18.95;3.92;;;6.10;99.90;;;;;;5079838;28;20044;-81
2022/01/17 06:39:10;;;;;;;18.00;3.45;;;6.10;99.90;;;;;;5070204;28;20492;-79
2022/01/17 06:41:38;;;;;;;14.05;3.42;;;6.10;99.90;;;;;;5090828;28;20050;-78
2022/01/17 06:44:04;;;;;;;16.20;3.58;;;6.20;99.90;;;;;;5087210;28;20131;-79
2022/01/17 06:46:30;;;;;;;16.42;3.97;;;6.20;99.90;;;;;;5084556;28;20117;-80
2022/01/17 06:48:55;;;;;;;19.40;3.72;;;6.20;99.90;;;;;;5072863;28;20493;-86
2022/01/17 06:51:21;;;;;;;21.95;4.93;;;6.20;99.90;;;;;;5062896;28;20400;-82
2022/01/17 06:53:48;;;;;;;21.02;4.43;;;6.10;99.90;;;;;;5073324;28;20067;-79
2022/01/17 06:56:14;;;;;;;21.92;3.92;;;6.10;99.90;;;;;;5077680;28;20484;-78
2022/01/17 06:58:42;;;;;;;24.30;4.55;;;6.00;99.90;;;;;;5082666;28;20080;-80
2022/01/17 07:01:08;;;;;;;26.08;4.63;;;6.00;99.90;;;;;;5080689;28;20160;-78
2022/01/17 07:03:34;;;;;;;19.08;3.97;;;6.00;99.90;;;;;;5085908;28;20123;-77
2022/01/17 07:06:00;;;;;;;28.13;4.47;;;6.00;99.90;;;;;;5099072;28;20122;-78
2022/01/17 07:08:26;;;;;;;16.73;3.83;;;6.00;99.90;;;;;;5084100;28;20100;-79
2022/01/17 07:10:52;;;;;;;19.83;4.10;;;6.00;99.90;;;;;;5083871;28;20047;-81
2022/01/17 07:13:17;;;;;;;21.77;4.20;;;6.00;99.90;;;;;;5066830;28;20065;-78
2022/01/17 07:15:43;;;;;;;25.67;5.13;;;6.00;99.90;;;;;;5092332;28;20043;-77
2022/01/17 07:18:11;;;;;;;23.52;4.30;;;6.00;99.90;;;;;;5090775;28;20046;-79
2022/01/17 07:20:38;;;;;;;26.65;5.15;;;6.00;99.90;;;;;;5040523;28;20044;-81
2022/01/17 07:23:04;;;;;;;25.92;5.03;;;6.00;99.90;;;;;;5083088;28;20105;-81
2022/01/17 07:25:29;;;;;;;30.23;5.32;;;6.00;99.90;;;;;;5078370;28;20043;-81
2022/01/17 07:27:56;;;;;;;27.63;4.47;;;6.00;99.90;;;;;;5073279;28;20040;-80
2022/01/17 07:30:23;;;;;;;30.90;4.63;;;6.10;99.90;;;;;;5055954;28;20603;-80
2022/01/17 07:32:49;;;;;;;24.85;3.83;;;6.10;99.90;;;;;;5073868;28;20056;-80
2022/01/17 07:35:15;;;;;;;32.05;5.40;;;6.10;99.90;;;;;;5072515;28;20443;-79
2022/01/17 07:37:40;;;;;;;27.63;5.13;;;6.10;99.90;;;;;;5075400;28;20070;-78
2022/01/17 07:40:08;;;;;;;29.05;4.60;;;6.10;99.90;;;;;;5090273;28;20134;-80
2022/01/17 07:42:34;;;;;;;34.30;4.38;;;6.10;99.90;;;;;;5082848;28;20134;-77
2022/01/17 07:45:09;;;;;;;29.15;4.70;;;6.10;99.90;;;;;;5083549;28;20544;-78
2022/01/17 07:47:45;;;;;;;34.22;4.70;;;6.10;99.90;;;;;;5080605;28;20052;-77
2022/01/17 07:50:16;;;;;;;28.70;4.68;;;6.20;99.90;;;;;;5074995;28;20055;-79
2022/01/17 07:52:43;;;;;;;25.50;4.75;;;6.20;99.90;;;;;;5097528;28;20079;-80
2022/01/17 07:55:09;;;;;;;25.80;4.15;;;6.20;99.90;;;;;;5082082;28;20112;-79
2022/01/17 07:57:37;;;;;;;26.05;3.58;;;6.30;99.90;;;;;;5080479;28;20052;-78
2022/01/17 08:00:08;;;;;;;26.02;4.72;;;6.30;99.90;;;;;;5090502;28;20047;-78
2022/01/17 08:02:34;;;;;;;26.33;4.57;;;6.30;99.90;;;;;;5067308;28;20517;-78
2022/01/17 08:05:00;;;;;;;19.92;3.30;;;6.30;99.90;;;;;;5085825;28;20044;-78
2022/01/17 08:07:26;;;;;;;27.77;3.60;;;6.40;99.90;;;;;;5068436;28;20048;-78
2022/01/17 08:09:52;;;;;;;20.35;4.28;;;6.40;99.90;;;;;;5095507;28;20047;-78
2022/01/17 08:12:17;;;;;;;32.22;3.97;;;6.40;99.90;;;;;;5079977;28;20047;-76
2022/01/17 08:14:43;;;;;;;58.63;6.97;;;6.40;99.90;;;;;;5060743;28;20097;-78
2022/01/17 08:17:10;;;;;;;39.83;5.40;;;6.40;99.90;;;;;;5090297;28;20390;-83
2022/01/17 08:19:36;;;;;;;29.85;3.78;;;6.40;99.90;;;;;;5076661;28;20051;-80
2022/01/17 08:22:04;;;;;;;35.03;4.22;;;6.40;99.90;;;;;;5090925;28;20039;-78
2022/01/17 08:24:30;;;;;;;32.55;4.50;;;6.40;99.90;;;;;;5082096;28;20778;-78
2022/01/17 08:26:56;;;;;;;31.17;4.00;;;6.40;99.90;;;;;;5076190;28;20400;-79
2022/01/17 08:29:25;;;;;;;25.77;4.85;;;6.40;99.90;;;;;;5094933;28;20043;-77
2022/01/17 08:31:51;;;;;;;32.25;4.68;;;6.50;99.90;;;;;;5073654;28;20496;-76
2022/01/17 08:34:17;;;;;;;30.58;4.32;;;6.50;99.90;;;;;;5091126;28;20048;-77
2022/01/17 08:36:44;;;;;;;29.10;4.18;;;6.50;99.90;;;;;;5088532;28;20628;-79
2022/01/17 08:39:10;;;;;;;32.90;4.72;;;6.60;99.90;;;;;;5084928;28;20047;-81
2022/01/17 08:41:42;;;;;;;32.63;4.05;;;6.60;99.90;;;;;;5087850;28;20047;-80
2022/01/17 08:44:12;;;;;;;32.30;4.13;;;6.60;99.90;;;;;;5071742;28;20044;-78
2022/01/17 08:46:38;;;;;;;29.33;4.30;;;6.70;99.90;;;;;;5089005;28;20113;-79
2022/01/17 08:49:05;;;;;;;27.70;3.80;;;6.70;99.90;;;;;;5086622;28;20051;-79
2022/01/17 08:51:31;;;;;;;37.58;5.95;;;6.70;99.90;;;;;;5073313;28;20385;-77
2022/01/17 08:53:57;;;;;;;39.78;5.65;;;6.70;99.90;;;;;;5057568;28;20052;-80
2022/01/17 08:56:23;;;;;;;28.88;4.80;;;6.70;99.90;;;;;;5080208;28;20055;-77
2022/01/17 08:58:49;;;;;;;29.30;5.28;;;6.70;99.90;;;;;;5083254;28;20043;-78
2022/01/17 09:01:15;;;;;;;29.27;5.50;;;6.70;99.90;;;;;;5070965;28;20362;-83
2022/01/17 09:03:41;;;;;;;36.67;5.88;;;6.80;99.90;;;;;;5056576;28;20048;-79
2022/01/17 09:06:07;;;;;;;30.98;5.13;;;6.70;99.90;;;;;;5080306;28;20126;-79
2022/01/17 09:08:32;;;;;;;37.67;6.15;;;6.80;99.90;;;;;;5081029;28;20056;-79
2022/01/17 09:10:58;;;;;;;36.78;5.40;;;6.90;99.90;;;;;;5047695;28;20047;-79
2022/01/17 09:13:25;;;;;;;36.88;5.30;;;6.90;99.90;;;;;;5059146;28;20051;-79
2022/01/17 09:15:52;;;;;;;38.58;4.43;;;6.90;99.90;;;;;;5093660;28;20040;-84
2022/01/17 09:18:20;;;;;;;37.90;5.47;;;7.00;99.90;;;;;;5060464;28;20052;-81
2022/01/17 09:20:47;;;;;;;41.35;4.47;;;7.00;99.90;;;;;;5073958;28;20043;-82
2022/01/17 09:23:13;;;;;;;31.85;5.25;;;7.10;99.90;;;;;;5091836;28;20051;-79
2022/01/17 09:25:39;;;;;;;32.47;4.88;;;7.10;99.90;;;;;;5066947;28;20075;-80
2022/01/17 09:28:05;;;;;;;34.05;4.68;;;7.20;99.90;;;;;;5061074;28;20075;-78
2022/01/17 09:30:31;;;;;;;38.22;4.53;;;7.30;99.90;;;;;;5071044;28;20074;-78
2022/01/17 09:32:57;;;;;;;34.22;4.40;;;7.30;99.90;;;;;;5070193;28;20047;-78
2022/01/17 09:35:23;;;;;;;34.35;6.00;;;7.40;99.90;;;;;;5075443;28;20131;-79
2022/01/17 09:37:50;;;;;;;34.63;4.20;;;7.60;99.90;;;;;;5087166;28;20126;-78
2022/01/17 09:40:19;;;;;;;34.75;5.15;;;7.70;99.90;;;;;;5074454;28;20043;-77
2022/01/17 09:42:45;;;;;;;37.22;4.43;;;7.90;99.90;;;;;;5052287;28;20124;-78
2022/01/17 09:45:13;;;;;;;44.65;6.10;;;8.10;99.90;;;;;;5074204;28;20561;-79
2022/01/17 09:47:40;;;;;;;33.03;4.03;;;8.20;99.90;;;;;;5096427;28;20087;-77
2022/01/17 09:50:11;;;;;;;38.67;4.72;;;8.30;99.90;;;;;;5083186;28;20482;-81
2022/01/17 09:52:43;;;;;;;30.55;4.18;;;8.40;99.90;;;;;;5106909;28;20048;-80
2022/01/17 09:55:15;;;;;;;39.13;6.10;;;8.40;99.90;;;;;;5074268;28;20398;-78
2022/01/17 09:57:48;;;;;;;35.08;5.03;;;8.50;99.90;;;;;;5092419;28;20140;-76
2022/01/17 10:00:16;;;;;;;30.45;4.80;;;8.70;99.90;;;;;;5075985;28;20056;-77
2022/01/17 10:02:42;;;;;;;39.75;5.10;;;8.70;99.90;;;;;;5075191;28;20044;-76
2022/01/17 10:05:08;;;;;;;39.47;5.30;;;8.70;99.90;;;;;;5056153;28;20048;-77
2022/01/17 10:08:09;;;;;;;39.17;5.90;;;8.80;99.90;;;;;;5071093;28;20394;-76
2022/01/17 10:10:57;;;;;;;34.95;5.57;;;8.90;99.90;;;;;;5072171;28;20055;-76
2022/01/17 10:13:52;;;;;;;40.92;5.32;;;9.00;99.90;;;;;;5072354;28;20048;-76
2022/01/17 10:16:20;;;;;;;34.08;6.13;;;9.00;99.90;;;;;;5054095;28;20498;-76
2022/01/17 10:18:54;;;;;;;30.92;5.60;;;9.00;99.90;;;;;;5070633;28;20250;-77
2022/01/17 10:21:50;;;;;;;32.53;6.93;;;9.00;99.90;;;;;;5072072;28;20044;-77
2022/01/17 10:35:14;;;;;;;40.75;6.32;;;9.30;99.90;;;;;;5079623;28;20116;-82
2022/01/17 10:37:40;;;;;;;;;;;9.40;99.90;;;;;;5084691;28;20044;-82
2022/01/17 10:40:14;;;;;;;38.30;6.00;;;9.50;99.90;;;;;;5080311;28;20254;-79
2022/01/17 10:42:45;;;;;;;39.38;7.25;;;9.50;99.90;;;;;;5086742;28;21120;-79
2022/01/17 10:45:11;;;;;;;37.95;6.70;;;9.50;99.90;;;;;;5069426;28;20130;-78
2022/01/17 10:47:40;;;;;;;39.83;6.82;;;9.50;99.90;;;;;;5087300;28;20147;-80
2022/01/17 10:50:11;;;;;;;44.42;5.85;;;9.60;99.90;;;;;;5066403;28;20123;-79
2022/01/17 10:52:40;;;;;;;34.90;5.70;;;9.60;99.90;;;;;;5059716;28;20040;-79
2022/01/17 10:55:19;;;;;;;33.13;5.28;;;9.60;99.90;;;;;;5071307;28;20048;-80
2022/01/17 10:57:48;;;;;;;29.75;4.43;;;9.60;99.90;;;;;;5087512;28;20052;-78
2022/01/17 11:00:20;;;;;;;34.50;5.47;;;9.50;99.90;;;;;;5067424;28;20052;-79
2022/01/17 11:03:13;;;;;;;43.22;7.28;;;9.50;99.90;;;;;;5061610;28;20048;-80
2022/01/17 11:05:41;;;;;;;41.30;6.38;;;9.50;99.90;;;;;;5075708;28;20060;-81
2022/01/17 11:08:08;;;;;;;39.50;5.93;;;9.50;99.90;;;;;;5060177;28;20040;-80
2022/01/17 11:10:57;;;;;;;31.88;5.43;;;9.50;99.90;;;;;;5079983;28;20123;-85
2022/01/17 11:13:27;;;;;;;32.03;5.00;;;9.40;99.90;;;;;;5083459;28;20048;-80
2022/01/17 11:15:58;;;;;;;46.78;7.75;;;9.40;99.90;;;;;;5076111;28;20080;-80
2022/01/17 11:18:27;;;;;;;39.50;6.32;;;9.50;99.90;;;;;;5080947;28;20499;-81
2022/01/17 11:20:53;;;;;;;40.63;5.60;;;9.50;99.90;;;;;;5082424;28;20052;-81
2022/01/17 11:23:22;;;;;;;48.58;7.35;;;9.50;99.90;;;;;;5082130;28;20098;-79
2022/01/17 11:25:53;;;;;;;42.50;6.03;;;9.50;99.90;;;;;;5080647;28;20075;-80
2022/01/17 11:28:22;;;;;;;36.63;6.97;;;9.50;99.90;;;;;;5060781;28;20493;-81
2022/01/17 11:30:52;;;;;;;39.25;4.90;;;9.60;99.90;;;;;;5070697;28;20592;-79
2022/01/17 11:33:17;;;;;;;43.92;6.40;;;9.70;99.90;;;;;;5059558;28;20485;-79
2022/01/17 11:35:46;;;;;;;40.38;7.45;;;9.80;99.90;;;;;;5080114;28;20049;-80
2022/01/17 11:38:15;;;;;;;35.88;6.13;;;9.90;99.90;;;;;;5076230;28;20120;-79
2022/01/17 11:40:42;;;;;;;38.28;5.45;;;9.80;99.90;;;;;;5076431;28;20068;-82
2022/01/17 11:43:33;;;;;;;40.60;5.90;;;9.80;99.90;;;;;;5078470;28;20138;-82
2022/01/17 11:46:03;;;;;;;47.75;6.38;;;9.80;99.90;;;;;;5076782;28;20546;-80
2022/01/17 11:48:32;;;;;;;40.13;6.05;;;9.80;99.90;;;;;;5079518;28;20047;-80
2022/01/17 11:51:18;;;;;;;40.22;6.20;;;9.90;99.90;;;;;;5060222;28;20101;-78
2022/01/17 11:53:46;;;;;;;44.13;7.03;;;10.00;99.90;;;;;;5096538;28;20134;-79
2022/01/17 11:56:35;;;;;;;32.30;5.63;;;10.00;99.90;;;;;;5065341;28;20054;-78
2022/01/17 11:59:01;;;;;;;38.55;6.18;;;10.00;99.90;;;;;;5079529;28;20047;-81
2022/01/17 12:01:26;;;;;;;39.15;7.63;;;10.00;99.90;;;;;;5063263;28;20114;-81
2022/01/17 12:03:56;;;;;;;36.33;5.28;;;10.00;99.90;;;;;;5049179;28;20097;-81
2022/01/17 12:06:35;;;;;;;36.63;5.40;;;10.10;99.90;;;;;;5049353;28;20048;-80
2022/01/17 12:09:21;;;;;;;31.45;6.10;;;10.10;99.90;;;;;;5061524;28;20842;-79
2022/01/17 12:11:56;;;;;;;42.30;6.25;;;10.10;99.90;;;;;;5060687;28;20050;-79
2022/01/17 12:14:27;;;;;;;38.05;6.97;;;10.00;99.90;;;;;;5083970;28;20044;-81
2022/01/17 12:17:14;;;;;;;28.13;5.47;;;10.00;99.90;;;;;;5082130;28;20044;-80
2022/01/17 12:19:59;;;;;;;;;;;9.90;99.90;;;;;;5083340;28;20039;-79
2022/01/17 12:22:25;;;;;;;39.10;5.40;;;9.80;99.90;;;;;;5067109;28;19927;-79
2022/01/17 12:24:51;;;;;;;40.22;5.78;;;9.80;99.90;;;;;;5065679;28;20040;-79
2022/01/17 12:27:18;;;;;;;39.60;6.22;;;9.80;99.90;;;;;;5083677;28;20048;-80
2022/01/17 12:29:51;;;;;;;39.33;6.55;;;9.80;99.90;;;;;;5041772;28;20514;-83
2022/01/17 12:32:28;;;;;;;43.15;6.60;;;9.80;99.90;;;;;;5088718;28;20044;-81
2022/01/17 12:35:17;;;;;;;44.47;7.03;;;9.90;99.90;;;;;;5075012;28;20044;-81
2022/01/17 12:37:56;;;;;;;38.88;5.72;;;9.90;99.90;;;;;;5087173;28;20100;-80
2022/01/17 12:40:32;;;;;;;35.97;5.57;;;9.90;99.90;;;;;;5067479;28;20120;-81
2022/01/17 12:43:01;;;;;;;32.97;5.38;;;10.00;99.90;;;;;;5072390;28;20249;-81
2022/01/17 12:45:35;;;;;;;43.85;5.35;;;10.10;99.90;;;;;;5070302;28;20047;-79
2022/01/17 12:48:08;;;;;;;27.60;4.38;;;10.00;99.90;;;;;;5074933;28;20465;-79
2022/01/17 12:50:36;;;;;;;27.48;4.85;;;9.90;99.90;;;;;;5084238;28;20047;-80
2022/01/17 12:53:03;;;;;;;40.90;6.57;;;9.90;99.90;;;;;;5089576;28;20059;-80
2022/01/17 12:55:37;;;;;;;28.27;5.20;;;9.80;99.90;;;;;;5078027;28;20050;-80
2022/01/17 12:58:19;;;;;;;32.88;5.15;;;9.70;99.90;;;;;;5067548;28;20050;-79
2022/01/17 13:00:51;;;;;;;41.25;6.57;;;9.70;99.90;;;;;;5083230;28;22682;-79
2022/01/17 13:03:19;;;;;;;40.75;5.95;;;9.60;99.90;;;;;;5087117;28;20496;-78
2022/01/17 13:05:45;;;;;;;38.90;7.43;;;9.60;99.90;;;;;;5048748;28;20692;-79
2022/01/17 13:08:12;;;;;;;38.25;5.53;;;9.60;99.90;;;;;;5070828;28;20547;-80
2022/01/17 13:10:38;;;;;;;42.55;5.90;;;9.70;99.90;;;;;;5081892;28;20155;-79
2022/01/17 13:13:05;;;;;;;38.88;5.72;;;9.70;99.90;;;;;;5074153;28;20065;-81
2022/01/17 13:15:30;;;;;;;34.08;5.78;;;9.70;99.90;;;;;;5065019;28;20056;-79
2022/01/17 13:17:57;;;;;;;32.15;5.35;;;9.60;99.90;;;;;;5091183;28;20043;-81